Time;durP1;ratioP1;P1;durP2;ratioP2;P2;SDS_P1;SDS_P2;PMS_P1;PMS_P2;Temp;Humidity;BMP_temperature;BMP_pressure;BME280_temperature;BME280_humidity;BME280_pressure;Samples;Min_cycle;Max_cycle;Signal;HPM_P1;HPM_P2
2023/01/05 00:02:18;;;;;;;2.90;1.90;;;;;;;;;;5119317;27;20622;-92
2023/01/05 00:04:46;;;;;;;3.40;2.30;;;;;;;;;;5134447;27;20749;-92
2023/01/05 00:07:13;;;;;;;3.07;1.97;;;;;;;;;;5135463;27;20279;-92
2023/01/05 00:09:40;;;;;;;2.83;2.47;;;;;;;;;;5109593;27;20206;-92
2023/01/05 00:23:16;;;;;;;5.60;2.20;;;;;;;;;;5055971;28;20245;-92
2023/01/05 00:25:43;;;;;;;4.10;2.10;;;;;;;;;;5071961;28;20245;-92
2023/01/05 00:28:10;;;;;;;4.43;2.20;;;;;;;;;;5072052;28;20234;-91
2023/01/05 00:30:40;;;;;;;4.67;1.70;;;;;;;;;;5065076;28;20256;-92
2023/01/05 00:33:09;;;;;;;2.73;1.93;;;;;;;;;;5092167;28;20206;-92
2023/01/05 00:35:37;;;;;;;5.33;2.10;;;;;;;;;;5078758;28;20298;-91
2023/01/05 00:38:05;;;;;;;4.67;2.20;;;;;;;;;;5072107;28;20695;-92
2023/01/05 00:40:33;;;;;;;5.23;1.97;;;;;;;;;;5071567;28;20199;-93
2023/01/05 00:43:00;;;;;;;2.93;2.03;;;;;;;;;;5072310;28;20664;-92
2023/01/05 00:45:27;;;;;;;3.33;1.93;;;;;;;;;;5071831;28;20218;-92
2023/01/05 00:47:56;;;;;;;4.33;1.70;;;;;;;;;;5071640;28;20948;-92
2023/01/05 00:50:24;;;;;;;2.63;1.80;;;;;;;;;;5087679;28;20211;-92
2023/01/05 00:52:51;;;;;;;5.10;1.90;;;;;;;;;;5089689;28;20201;-92
2023/01/05 00:55:18;;;;;;;3.83;1.80;;;;;;;;;;5127839;28;20197;-93
2023/01/05 00:57:45;;;;;;;2.63;1.90;;;;;;;;;;5123237;28;20232;-92
2023/01/05 01:00:15;;;;;;;4.63;2.00;;;;;;;;;;5109652;28;20259;-91
2023/01/05 01:02:43;;;;;;;4.20;1.80;;;;;;;;;;5124993;28;20209;-91
2023/01/05 01:05:12;;;;;;;6.53;1.77;;;;;;;;;;5141278;28;20561;-92
2023/01/05 01:07:39;;;;;;;5.17;1.83;;;;;;;;;;5137767;28;20205;-91
2023/01/05 01:10:07;;;;;;;4.20;1.80;;;;;;;;;;5144791;28;20201;-92
2023/01/05 01:12:34;;;;;;;2.63;1.63;;;;;;;;;;5136269;28;20256;-91
2023/01/05 01:15:02;;;;;;;3.73;1.60;;;;;;;;;;5129431;28;20190;-92
2023/01/05 01:17:29;;;;;;;3.70;1.80;;;;;;;;;;5121774;28;20257;-93
2023/01/05 01:19:56;;;;;;;2.87;1.90;;;;;;;;;;5126103;28;20197;-91
2023/01/05 01:22:25;;;;;;;4.83;1.87;;;;;;;;;;5129787;28;20197;-91
2023/01/05 01:24:52;;;;;;;5.43;1.87;;;;;;;;;;5135949;28;20201;-93
2023/01/05 01:27:19;;;;;;;5.10;1.80;;;;;;;;;;5125499;28;20202;-93
2023/01/05 01:29:47;;;;;;;4.90;1.90;;;;;;;;;;5104675;28;20210;-93
2023/01/05 01:32:14;;;;;;;3.67;1.70;;;;;;;;;;5127577;28;20688;-92
2023/01/05 01:34:41;;;;;;;4.60;1.90;;;;;;;;;;5132737;27;20274;-92
2023/01/05 01:37:09;;;;;;;4.80;1.97;;;;;;;;;;5097818;27;20267;-92
2023/01/05 01:39:38;;;;;;;4.33;2.13;;;;;;;;;;5117679;27;20232;-93
2023/01/05 01:42:05;;;;;;;4.33;2.00;;;;;;;;;;5120790;27;20202;-92
2023/01/05 01:44:52;;;;;;;3.50;1.77;;;;;;;;;;5103752;27;20717;-92
2023/01/05 01:47:23;;;;;;;3.20;2.07;;;;;;;;;;5117409;27;20245;-93
2023/01/05 01:49:51;;;;;;;3.17;2.10;;;;;;;;;;5113106;27;20206;-92
2023/01/05 01:52:20;;;;;;;3.43;2.03;;;;;;;;;;5123841;27;20198;-92
2023/01/05 01:54:48;;;;;;;2.90;2.00;;;;;;;;;;5133396;27;20197;-92
2023/01/05 01:57:16;;;;;;;3.00;1.90;;;;;;;;;;5117145;27;20232;-93
2023/01/05 01:59:44;;;;;;;4.33;2.10;;;;;;;;;;5121954;27;20651;-92
2023/01/05 02:02:11;;;;;;;5.20;1.90;;;;;;;;;;5116766;28;20275;-93
2023/01/05 02:04:39;;;;;;;3.37;1.67;;;;;;;;;;5134999;27;20731;-93
2023/01/05 02:07:08;;;;;;;3.30;1.90;;;;;;;;;;5136772;27;20201;-92
2023/01/05 02:09:36;;;;;;;4.50;2.00;;;;;;;;;;5136415;27;20208;-92
2023/01/05 02:12:08;;;;;;;3.03;1.77;;;;;;;;;;5136560;27;20232;-91
2023/01/05 02:14:41;;;;;;;3.57;1.87;;;;;;;;;;5136417;27;20201;-91
2023/01/05 02:17:16;;;;;;;3.57;1.83;;;;;;;;;;5096279;28;20202;-93
2023/01/05 02:20:07;;;;;;;2.93;1.83;;;;;;;;;;5095585;28;20259;-92
2023/01/05 02:22:52;;;;;;;2.40;1.63;;;;;;;;;;5108791;27;20257;-93
2023/01/05 02:25:30;;;;;;;2.57;1.67;;;;;;;;;;5127230;27;20702;-92
2023/01/05 02:28:06;;;;;;;2.97;1.57;;;;;;;;;;5132378;27;20228;-92
2023/01/05 02:30:52;;;;;;;3.03;1.70;;;;;;;;;;5124957;27;20202;-92
2023/01/05 02:33:26;;;;;;;2.23;1.70;;;;;;;;;;5086101;28;20638;-92
2023/01/05 02:35:57;;;;;;;2.43;1.50;;;;;;;;;;5095737;28;20195;-92
2023/01/05 02:38:32;;;;;;;3.50;1.70;;;;;;;;;;5127192;27;20231;-91
2023/01/05 02:41:02;;;;;;;2.40;1.70;;;;;;;;;;5119672;27;20625;-92
2023/01/05 02:43:30;;;;;;;2.40;1.70;;;;;;;;;;5136595;27;20193;-91
2023/01/05 02:45:57;;;;;;;3.17;2.00;;;;;;;;;;5101164;27;20202;-93
2023/01/05 02:48:26;;;;;;;3.50;1.77;;;;;;;;;;5135886;27;20260;-92
2023/01/05 02:50:59;;;;;;;2.73;1.67;;;;;;;;;;5117582;27;20285;-92
2023/01/05 02:53:30;;;;;;;2.27;1.60;;;;;;;;;;5116086;28;20673;-92
2023/01/05 02:55:59;;;;;;;3.77;1.57;;;;;;;;;;5115746;27;20205;-91
2023/01/05 02:58:30;;;;;;;3.00;1.70;;;;;;;;;;5105866;27;20597;-92
2023/01/05 03:00:59;;;;;;;1.87;1.57;;;;;;;;;;5135841;27;20212;-92
2023/01/05 03:03:32;;;;;;;2.17;1.60;;;;;;;;;;5135791;27;20205;-92
2023/01/05 03:06:02;;;;;;;3.47;1.90;;;;;;;;;;5134828;27;20209;-92
2023/01/05 03:08:31;;;;;;;2.23;2.00;;;;;;;;;;5119110;27;20681;-92
2023/01/05 03:13:48;;;;;;;3.13;1.80;;;;;;;;;;5122124;28;20276;-92
2023/01/05 03:16:19;;;;;;;3.20;1.60;;;;;;;;;;5122389;28;20198;-92
2023/01/05 03:35:33;;;;;;;1.67;1.30;;;;;;;;;;5135288;27;20208;-92
2023/01/05 03:38:03;;;;;;;2.73;1.40;;;;;;;;;;5134883;27;20255;-92
2023/01/05 03:40:32;;;;;;;3.63;1.70;;;;;;;;;;5121732;27;20654;-92
2023/01/05 03:43:00;;;;;;;2.13;1.20;;;;;;;;;;5122733;27;20202;-92
2023/01/05 03:45:33;;;;;;;2.47;1.40;;;;;;;;;;5094583;28;20222;-93
2023/01/05 03:48:00;;;;;;;3.33;1.17;;;;;;;;;;5119757;27;20229;-92
2023/01/05 03:50:29;;;;;;;4.33;1.47;;;;;;;;;;5109961;27;20206;-93
2023/01/05 03:52:57;;;;;;;3.03;1.30;;;;;;;;;;5094518;28;20195;-92
2023/01/05 03:55:25;;;;;;;5.87;1.40;;;;;;;;;;5105036;28;20205;-93
2023/01/05 03:57:52;;;;;;;2.50;1.20;;;;;;;;;;5126893;27;20201;-92
2023/01/05 04:00:19;;;;;;;3.00;1.20;;;;;;;;;;5134872;27;20233;-92
2023/01/05 04:02:47;;;;;;;2.30;1.00;;;;;;;;;;5120962;27;20236;-92
2023/01/05 04:05:14;;;;;;;3.97;1.30;;;;;;;;;;5114289;28;20670;-91
2023/01/05 04:07:43;;;;;;;3.00;1.23;;;;;;;;;;5105036;28;20203;-93
2023/01/05 04:10:10;;;;;;;1.70;1.07;;;;;;;;;;5098334;28;20203;-92
2023/01/05 04:12:38;;;;;;;3.27;1.07;;;;;;;;;;5108348;28;20210;-93
2023/01/05 04:15:06;;;;;;;3.90;1.10;;;;;;;;;;5115183;28;20204;-92
2023/01/05 04:17:33;;;;;;;2.90;1.10;;;;;;;;;;5129886;27;20244;-92
2023/01/05 04:20:00;;;;;;;4.17;1.23;;;;;;;;;;5113217;28;20268;-92
2023/01/05 04:22:27;;;;;;;1.87;1.00;;;;;;;;;;5114005;28;20201;-93
2023/01/05 04:24:56;;;;;;;2.70;1.40;;;;;;;;;;5114197;28;20197;-92
2023/01/05 04:27:23;;;;;;;2.13;0.80;;;;;;;;;;5118858;28;20259;-93
2023/01/05 04:29:51;;;;;;;3.63;1.03;;;;;;;;;;5114328;28;20232;-92
2023/01/05 04:32:18;;;;;;;2.60;1.17;;;;;;;;;;5114034;28;20213;-93
2023/01/05 04:34:45;;;;;;;5.70;1.40;;;;;;;;;;5134736;28;20238;-92
2023/01/05 04:37:12;;;;;;;3.63;1.23;;;;;;;;;;5134957;28;20642;-93
2023/01/05 04:39:40;;;;;;;2.00;1.00;;;;;;;;;;5133285;28;20273;-92
2023/01/05 04:42:08;;;;;;;2.50;0.90;;;;;;;;;;5124219;28;20611;-92
2023/01/05 04:44:36;;;;;;;5.10;1.17;;;;;;;;;;5114460;28;20547;-92
2023/01/05 04:47:03;;;;;;;3.63;1.20;;;;;;;;;;5113021;28;20229;-91
2023/01/05 04:49:30;;;;;;;3.53;1.13;;;;;;;;;;5113124;28;20246;-92
2023/01/05 04:51:57;;;;;;;5.50;1.23;;;;;;;;;;5113750;28;20860;-92
2023/01/05 04:54:25;;;;;;;2.07;1.00;;;;;;;;;;5114016;28;20239;-92
2023/01/05 04:56:52;;;;;;;2.77;1.20;;;;;;;;;;5121509;28;20294;-92
2023/01/05 04:59:21;;;;;;;4.67;1.10;;;;;;;;;;5122976;28;20266;-92
2023/01/05 05:01:48;;;;;;;7.40;2.53;;;;;;;;;;5118475;28;20193;-91
2023/01/05 05:04:15;;;;;;;5.20;3.00;;;;;;;;;;5098870;28;20649;-92
2023/01/05 05:06:43;;;;;;;4.07;1.80;;;;;;;;;;5111820;28;20227;-92
2023/01/05 05:09:10;;;;;;;3.27;1.40;;;;;;;;;;5133415;27;20220;-92
2023/01/05 05:11:37;;;;;;;2.63;1.30;;;;;;;;;;5129348;27;20242;-92
2023/01/05 05:14:05;;;;;;;6.33;1.90;;;;;;;;;;5144407;27;20201;-93
2023/01/05 05:16:33;;;;;;;3.73;2.10;;;;;;;;;;5136348;27;20243;-92
2023/01/05 05:19:01;;;;;;;4.97;1.80;;;;;;;;;;5137957;27;20249;-93
2023/01/05 05:21:28;;;;;;;2.50;1.20;;;;;;;;;;5126179;27;20206;-92
2023/01/05 05:23:55;;;;;;;4.87;1.70;;;;;;;;;;5102806;28;20226;-91
2023/01/05 05:26:22;;;;;;;3.10;1.40;;;;;;;;;;5103366;27;20250;-92
2023/01/05 05:28:50;;;;;;;3.90;1.67;;;;;;;;;;5124776;27;20197;-91
2023/01/05 05:31:17;;;;;;;4.07;1.83;;;;;;;;;;5108413;28;20254;-92
2023/01/05 05:33:46;;;;;;;4.43;2.00;;;;;;;;;;5110913;28;20691;-93
2023/01/05 05:36:13;;;;;;;3.90;1.80;;;;;;;;;;5107255;27;20222;-92
2023/01/05 05:38:40;;;;;;;4.40;1.70;;;;;;;;;;5132586;27;20213;-92
2023/01/05 05:41:07;;;;;;;4.30;1.67;;;;;;;;;;5136069;27;20337;-92
2023/01/05 05:43:35;;;;;;;3.97;1.70;;;;;;;;;;5138277;27;20224;-92
2023/01/05 05:46:02;;;;;;;3.67;1.57;;;;;;;;;;5134954;27;20707;-92
2023/01/05 05:48:29;;;;;;;2.27;1.30;;;;;;;;;;5111122;27;20226;-93
2023/01/05 05:50:58;;;;;;;4.77;1.43;;;;;;;;;;5096940;28;20252;-92
2023/01/05 05:53:25;;;;;;;2.47;1.50;;;;;;;;;;5099908;28;20226;-91
2023/01/05 05:55:53;;;;;;;4.70;2.17;;;;;;;;;;5117489;28;20223;-90
2023/01/05 05:58:20;;;;;;;4.50;2.00;;;;;;;;;;5116985;28;20263;-91
2023/01/05 06:00:48;;;;;;;2.97;1.80;;;;;;;;;;5115705;28;20644;-90
2023/01/05 06:03:16;;;;;;;5.80;1.70;;;;;;;;;;5126597;27;20250;-90
2023/01/05 06:05:43;;;;;;;3.30;1.50;;;;;;;;;;5136846;27;20201;-91
2023/01/05 06:08:12;;;;;;;5.07;1.53;;;;;;;;;;5104900;27;20226;-92
2023/01/05 06:10:39;;;;;;;3.30;1.33;;;;;;;;;;5096031;28;20195;-90
2023/01/05 06:13:07;;;;;;;5.20;1.37;;;;;;;;;;5095128;28;20210;-88
2023/01/05 06:15:34;;;;;;;5.23;1.53;;;;;;;;;;5122428;27;20676;-90
2023/01/05 06:18:01;;;;;;;3.07;1.50;;;;;;;;;;5136816;27;20201;-90
2023/01/05 06:20:28;;;;;;;3.27;1.30;;;;;;;;;;5097809;27;20237;-90
2023/01/05 06:22:56;;;;;;;3.83;1.40;;;;;;;;;;5115860;27;20204;-92
2023/01/05 06:25:24;;;;;;;3.20;1.40;;;;;;;;;;5112056;28;20201;-92
2023/01/05 06:27:59;;;;;;;6.17;1.77;;;;;;;;;;5103685;28;20191;-90
2023/01/05 06:30:29;;;;;;;3.80;1.20;;;;;;;;;;5122344;27;20196;-92
2023/01/05 06:32:57;;;;;;;5.13;1.87;;;;;;;;;;5121991;27;20262;-91
2023/01/05 06:35:27;;;;;;;5.07;1.80;;;;;;;;;;5134726;27;20205;-90
2023/01/05 06:37:54;;;;;;;4.67;1.50;;;;;;;;;;5134390;27;20201;-91
2023/01/05 06:40:22;;;;;;;3.90;1.70;;;;;;;;;;5135473;27;20228;-89
2023/01/05 06:42:51;;;;;;;6.40;3.37;;;;;;;;;;5104483;27;20198;-87
2023/01/05 06:45:18;;;;;;;5.63;2.20;;;;;;;;;;5134238;27;20561;-89
2023/01/05 06:47:49;;;;;;;4.70;1.80;;;;;;;;;;5133128;27;20643;-92
2023/01/05 06:50:16;;;;;;;5.53;1.80;;;;;;;;;;5103377;28;20193;-91
2023/01/05 06:52:43;;;;;;;8.03;1.70;;;;;;;;;;5115536;28;20201;-90
2023/01/05 06:55:12;;;;;;;5.50;1.57;;;;;;;;;;5115904;28;20197;-91
2023/01/05 06:57:41;;;;;;;6.27;1.40;;;;;;;;;;5115419;28;20198;-90
2023/01/05 07:00:11;;;;;;;6.87;1.70;;;;;;;;;;5132000;27;20225;-91
2023/01/05 07:02:39;;;;;;;5.23;1.70;;;;;;;;;;5118825;28;20213;-91
2023/01/05 07:05:06;;;;;;;7.03;2.07;;;;;;;;;;5121864;27;20358;-91
2023/01/05 07:07:34;;;;;;;5.63;1.50;;;;;;;;;;5137061;27;20197;-91
2023/01/05 07:10:01;;;;;;;7.53;2.27;;;;;;;;;;5121182;27;20681;-90
2023/01/05 07:12:29;;;;;;;6.73;1.90;;;;;;;;;;5119784;27;20201;-91
2023/01/05 07:14:56;;;;;;;7.27;1.80;;;;;;;;;;5104014;28;20210;-89
2023/01/05 07:17:25;;;;;;;8.40;1.97;;;;;;;;;;5107088;28;20255;-90
2023/01/05 07:19:52;;;;;;;9.07;2.23;;;;;;;;;;5127922;27;20213;-90
2023/01/05 07:22:19;;;;;;;10.37;1.90;;;;;;;;;;5122125;27;20341;-89
2023/01/05 07:24:47;;;;;;;10.77;2.03;;;;;;;;;;5135679;27;20201;-90
2023/01/05 07:27:14;;;;;;;9.40;2.13;;;;;;;;;;5121177;27;20263;-90
2023/01/05 07:29:42;;;;;;;10.23;2.07;;;;;;;;;;5113597;28;20194;-90
2023/01/05 07:32:09;;;;;;;8.83;1.83;;;;;;;;;;5093539;28;20251;-90
2023/01/05 07:34:38;;;;;;;10.77;2.07;;;;;;;;;;5095068;28;20309;-90
2023/01/05 07:37:05;;;;;;;8.57;2.30;;;;;;;;;;5128894;27;20275;-90
2023/01/05 07:39:32;;;;;;;9.43;2.30;;;;;;;;;;5135386;27;20197;-90
2023/01/05 07:42:00;;;;;;;10.43;1.90;;;;;;;;;;5135117;27;20186;-89
2023/01/05 07:44:27;;;;;;;9.63;2.00;;;;;;;;;;5135363;27;20201;-90
2023/01/05 07:46:54;;;;;;;11.03;2.07;;;;;;;;;;5135250;27;20281;-90
2023/01/05 07:49:22;;;;;;;10.80;1.80;;;;;;;;;;5135231;27;20227;-90
2023/01/05 07:51:50;;;;;;;8.77;1.83;;;;;;;;;;5135339;27;20257;-90
2023/01/05 07:54:18;;;;;;;10.97;1.93;;;;;;;;;;5134918;27;20242;-90
2023/01/05 07:56:45;;;;;;;10.53;2.00;;;;;;;;;;5134474;27;20181;-89
2023/01/05 07:59:12;;;;;;;8.63;2.23;;;;;;;;;;5134696;27;20616;-89
2023/01/05 08:01:39;;;;;;;12.20;2.80;;;;;;;;;;5133883;27;20232;-88
2023/01/05 08:04:07;;;;;;;12.17;2.43;;;;;;;;;;5131360;27;20217;-93
2023/01/05 08:06:34;;;;;;;12.60;2.80;;;;;;;;;;5093780;28;20202;-90
2023/01/05 08:10:27;;;;;;;13.73;2.30;;;;;;;;;;5094165;28;20202;-91
2023/01/05 08:11:51;;;;;;;13.87;2.40;;;;;;;;;;5106346;28;20201;-89
2023/01/05 08:14:18;;;;;;;12.73;2.20;;;;;;;;;;5127661;27;20337;-89
2023/01/05 08:16:45;;;;;;;12.73;2.60;;;;;;;;;;5135101;27;20201;-88
2023/01/05 08:19:13;;;;;;;9.97;2.37;;;;;;;;;;5134389;27;20245;-88
2023/01/05 08:21:40;;;;;;;13.13;3.60;;;;;;;;;;5119952;27;20233;-88
2023/01/05 08:24:09;;;;;;;10.43;2.77;;;;;;;;;;5122366;28;20217;-89
2023/01/05 08:26:36;;;;;;;15.37;3.00;;;;;;;;;;5133611;28;20197;-88
2023/01/05 08:29:04;;;;;;;16.30;2.97;;;;;;;;;;5114216;28;20205;-89
2023/01/05 08:31:35;;;;;;;14.00;3.27;;;;;;;;;;5113794;28;20205;-88
2023/01/05 08:34:03;;;;;;;15.17;3.20;;;;;;;;;;5124639;28;20227;-88
2023/01/05 08:36:45;;;;;;;14.53;3.73;;;;;;;;;;5132769;28;20205;-88
2023/01/05 08:39:14;;;;;;;13.60;3.60;;;;;;;;;;5134395;28;20200;-87
2023/01/05 08:41:43;;;;;;;10.57;3.43;;;;;;;;;;5124536;28;20308;-86
2023/01/05 08:44:16;;;;;;;11.23;2.97;;;;;;;;;;5126884;27;20201;-87
2023/01/05 08:46:43;;;;;;;12.67;3.30;;;;;;;;;;5137308;27;20232;-87
2023/01/05 08:49:10;;;;;;;9.57;3.40;;;;;;;;;;5138135;27;20193;-87
2023/01/05 08:51:38;;;;;;;11.93;4.20;;;;;;;;;;5138343;27;20336;-88
2023/01/05 08:54:05;;;;;;;12.00;2.80;;;;;;;;;;5135742;27;20310;-87
2023/01/05 08:56:34;;;;;;;12.03;2.17;;;;;;;;;;5139163;27;20266;-87
2023/01/05 08:59:01;;;;;;;7.07;2.17;;;;;;;;;;5138198;27;20204;-86
2023/01/05 09:01:28;;;;;;;11.83;2.57;;;;;;;;;;5138048;27;20217;-89
2023/01/05 09:03:55;;;;;;;13.40;2.90;;;;;;;;;;5133716;27;20567;-86
2023/01/05 09:06:23;;;;;;;13.43;2.27;;;;;;;;;;5127010;27;20198;-85
2023/01/05 09:08:50;;;;;;;14.53;2.70;;;;;;;;;;5136840;27;20201;-86
2023/01/05 09:11:19;;;;;;;13.80;2.80;;;;;;;;;;5136844;27;20205;-86
2023/01/05 09:13:53;;;;;;;12.23;2.37;;;;;;;;;;5135198;27;20201;-86
2023/01/05 09:16:24;;;;;;;12.27;2.30;;;;;;;;;;5136839;27;20336;-86
2023/01/05 09:18:51;;;;;;;12.77;2.87;;;;;;;;;;5135089;27;20235;-85
2023/01/05 09:21:21;;;;;;;12.43;3.00;;;;;;;;;;5108903;27;20738;-87
2023/01/05 09:23:48;;;;;;;11.80;2.53;;;;;;;;;;5135202;27;20745;-85
2023/01/05 09:26:18;;;;;;;12.23;3.23;;;;;;;;;;5135838;27;20246;-88
2023/01/05 09:28:50;;;;;;;15.50;3.60;;;;;;;;;;5123079;27;20653;-85
2023/01/05 09:31:19;;;;;;;12.27;2.90;;;;;;;;;;5135699;27;20208;-86
2023/01/05 09:33:46;;;;;;;11.67;2.73;;;;;;;;;;5116259;27;20630;-87
2023/01/05 09:36:14;;;;;;;15.03;2.80;;;;;;;;;;5115776;27;20208;-86
2023/01/05 09:38:41;;;;;;;9.93;2.47;;;;;;;;;;5131996;27;20213;-85
2023/01/05 09:41:13;;;;;;;11.87;2.50;;;;;;;;;;5119702;27;20231;-86
2023/01/05 09:43:42;;;;;;;14.87;2.63;;;;;;;;;;5108031;27;20622;-85
2023/01/05 09:46:14;;;;;;;7.57;2.20;;;;;;;;;;5135600;27;20205;-85
2023/01/05 09:48:45;;;;;;;14.07;2.23;;;;;;;;;;5132856;27;20233;-87
2023/01/05 09:51:13;;;;;;;9.77;2.13;;;;;;;;;;5119810;27;20266;-85
2023/01/05 09:53:41;;;;;;;10.70;2.43;;;;;;;;;;5115531;28;20194;-86
2023/01/05 09:56:17;;;;;;;10.97;2.23;;;;;;;;;;5114326;28;20194;-85
2023/01/05 09:58:46;;;;;;;10.07;1.83;;;;;;;;;;5115536;28;20189;-85
2023/01/05 10:01:16;;;;;;;6.70;1.67;;;;;;;;;;5114467;27;20311;-86
2023/01/05 10:03:48;;;;;;;10.27;1.70;;;;;;;;;;5108630;27;20587;-86
2023/01/05 10:06:17;;;;;;;7.50;2.07;;;;;;;;;;5099499;28;20194;-86
2023/01/05 10:08:46;;;;;;;9.43;1.57;;;;;;;;;;5115381;27;20209;-86
2023/01/05 10:14:02;;;;;;;8.10;2.00;;;;;;;;;;5115352;27;20593;-86
2023/01/05 10:16:31;;;;;;;7.13;1.70;;;;;;;;;;5127597;27;20205;-85
2023/01/05 10:18:58;;;;;;;7.93;1.50;;;;;;;;;;5130942;27;20208;-86
2023/01/05 10:21:30;;;;;;;10.60;1.97;;;;;;;;;;5114994;27;20226;-86
2023/01/05 10:24:03;;;;;;;6.40;1.90;;;;;;;;;;5121978;27;20296;-86
2023/01/05 10:26:33;;;;;;;7.50;1.63;;;;;;;;;;5135884;27;20201;-86
2023/01/05 10:29:06;;;;;;;7.83;1.10;;;;;;;;;;5104064;27;20206;-86
2023/01/05 10:31:47;;;;;;;9.07;1.67;;;;;;;;;;5115166;28;20247;-85
2023/01/05 10:34:24;;;;;;;5.83;1.30;;;;;;;;;;5114943;28;20285;-86
2023/01/05 10:37:00;;;;;;;6.33;1.40;;;;;;;;;;5120040;27;20205;-86
2023/01/05 10:39:30;;;;;;;4.63;1.50;;;;;;;;;;5108348;27;20201;-86
2023/01/05 10:42:04;;;;;;;6.13;1.57;;;;;;;;;;5118307;28;20290;-86
2023/01/05 10:44:46;;;;;;;7.83;1.47;;;;;;;;;;5122590;27;20262;-86
2023/01/05 10:47:21;;;;;;;5.93;1.20;;;;;;;;;;5136383;27;20233;-87
2023/01/05 10:49:49;;;;;;;4.63;1.10;;;;;;;;;;5118672;27;20205;-86
2023/01/05 10:52:17;;;;;;;6.87;1.13;;;;;;;;;;5128718;27;20208;-85
2023/01/05 10:54:46;;;;;;;8.13;1.63;;;;;;;;;;5114241;28;20197;-86
2023/01/05 10:57:33;;;;;;;5.13;1.10;;;;;;;;;;5118125;27;20201;-86
2023/01/05 11:00:11;;;;;;;5.10;1.20;;;;;;;;;;5101937;27;20201;-86
2023/01/05 11:02:48;;;;;;;7.97;1.80;;;;;;;;;;5112008;27;20229;-86
2023/01/05 11:05:25;;;;;;;10.17;1.77;;;;;;;;;;5114293;27;20205;-86
2023/01/05 11:07:56;;;;;;;7.40;1.57;;;;;;;;;;5098366;27;20255;-86
2023/01/05 11:10:25;;;;;;;7.83;1.53;;;;;;;;;;5129175;27;20205;-87
2023/01/05 11:12:56;;;;;;;6.93;1.50;;;;;;;;;;5114528;28;20201;-86
2023/01/05 11:15:23;;;;;;;5.27;1.07;;;;;;;;;;5113653;28;20310;-86
2023/01/05 11:17:53;;;;;;;9.90;1.67;;;;;;;;;;5127636;27;20224;-85
2023/01/05 11:20:21;;;;;;;7.43;1.10;;;;;;;;;;5116703;27;20197;-85
2023/01/05 11:22:50;;;;;;;11.67;1.97;;;;;;;;;;5113336;27;20232;-86
2023/01/05 11:25:27;;;;;;;10.23;1.93;;;;;;;;;;5134527;27;20197;-86
2023/01/05 11:28:06;;;;;;;9.07;2.13;;;;;;;;;;5122290;27;20254;-86
2023/01/05 11:30:33;;;;;;;11.63;1.80;;;;;;;;;;5132374;27;20196;-85
2023/01/05 11:33:02;;;;;;;11.50;2.20;;;;;;;;;;5120492;27;20236;-85
2023/01/05 11:35:31;;;;;;;10.57;1.73;;;;;;;;;;5113700;28;20252;-86
2023/01/05 11:37:59;;;;;;;7.23;1.80;;;;;;;;;;5113074;28;20254;-85
2023/01/05 11:40:29;;;;;;;7.77;1.60;;;;;;;;;;5119398;27;20584;-85
2023/01/05 11:42:56;;;;;;;6.60;1.77;;;;;;;;;;5132949;27;20224;-85
2023/01/05 11:45:27;;;;;;;7.60;1.67;;;;;;;;;;5133676;27;20229;-86
2023/01/05 11:47:55;;;;;;;8.63;2.10;;;;;;;;;;5132916;27;20728;-84
2023/01/05 11:50:26;;;;;;;9.93;1.90;;;;;;;;;;5116742;27;20277;-85
2023/01/05 11:52:54;;;;;;;8.67;2.10;;;;;;;;;;5113091;28;20666;-85
2023/01/05 11:55:35;;;;;;;9.00;1.77;;;;;;;;;;5112921;28;20225;-86
2023/01/05 11:58:29;;;;;;;10.17;1.80;;;;;;;;;;5106065;28;20198;-85
2023/01/05 12:01:04;;;;;;;8.70;1.93;;;;;;;;;;5048642;28;20231;-85
2023/01/05 12:03:46;;;;;;;10.03;1.93;;;;;;;;;;5047584;28;20273;-85
2023/01/05 12:06:23;;;;;;;9.57;1.77;;;;;;;;;;5048166;28;20298;-86
2023/01/05 12:08:54;;;;;;;7.53;1.80;;;;;;;;;;5048996;28;20245;-86
2023/01/05 12:11:22;;;;;;;10.33;2.40;;;;;;;;;;5049109;28;20746;-86
2023/01/05 12:14:02;;;;;;;8.40;1.87;;;;;;;;;;5049946;28;20219;-85
2023/01/05 12:16:45;;;;;;;9.17;2.27;;;;;;;;;;5053226;28;20235;-85
2023/01/05 12:19:29;;;;;;;11.20;2.40;;;;;;;;;;5053465;28;20294;-84
2023/01/05 12:22:03;;;;;;;13.97;2.70;;;;;;;;;;5055943;28;20317;-86
2023/01/05 12:24:35;;;;;;;10.53;2.10;;;;;;;;;;5055001;28;20204;-87
2023/01/05 12:27:10;;;;;;;11.37;2.50;;;;;;;;;;5047117;28;20719;-85
2023/01/05 12:29:45;;;;;;;10.37;2.00;;;;;;;;;;5044955;28;20293;-87
2023/01/05 12:32:25;;;;;;;8.43;1.93;;;;;;;;;;5049327;28;20619;-86
2023/01/05 12:35:11;;;;;;;9.07;1.90;;;;;;;;;;5049770;28;20191;-87
2023/01/05 12:37:45;;;;;;;12.10;2.07;;;;;;;;;;5030925;28;20227;-86
2023/01/05 12:40:35;;;;;;;8.47;1.67;;;;;;;;;;5052902;28;20237;-84
2023/01/05 12:43:04;;;;;;;10.30;2.07;;;;;;;;;;5059693;28;20223;-86
2023/01/05 12:45:58;;;;;;;10.17;2.20;;;;;;;;;;5069714;28;20195;-86
2023/01/05 12:48:28;;;;;;;9.00;1.90;;;;;;;;;;4970974;28;20359;-86
2023/01/05 12:50:58;;;;;;;11.00;2.90;;;;;;;;;;4956469;28;20238;-86
2023/01/05 12:53:31;;;;;;;11.43;1.83;;;;;;;;;;4953988;28;20234;-86
2023/01/05 12:56:00;;;;;;;10.97;1.90;;;;;;;;;;4958925;28;20206;-86
2023/01/05 12:58:30;;;;;;;6.67;1.97;;;;;;;;;;4970990;28;20715;-87
2023/01/05 13:00:58;;;;;;;10.20;1.87;;;;;;;;;;4969618;28;20268;-86
2023/01/05 13:03:28;;;;;;;10.90;2.00;;;;;;;;;;4969999;28;20261;-86
2023/01/05 13:06:00;;;;;;;9.73;2.10;;;;;;;;;;4968453;28;20237;-86
2023/01/05 13:08:34;;;;;;;9.00;2.30;;;;;;;;;;4970365;28;20683;-86
2023/01/05 13:11:03;;;;;;;9.20;1.97;;;;;;;;;;4961328;28;20688;-86
2023/01/05 13:13:33;;;;;;;8.57;1.70;;;;;;;;;;4969589;28;20202;-87
2023/01/05 13:16:03;;;;;;;12.00;1.83;;;;;;;;;;5045881;28;20200;-86
2023/01/05 13:18:32;;;;;;;7.97;1.67;;;;;;;;;;5048402;28;20250;-84
2023/01/05 13:21:01;;;;;;;9.13;2.07;;;;;;;;;;5044607;28;20223;-86
2023/01/05 13:23:30;;;;;;;9.33;1.87;;;;;;;;;;5053121;28;21004;-86
2023/01/05 13:26:00;;;;;;;9.83;1.93;;;;;;;;;;5131364;28;20629;-86
2023/01/05 13:28:27;;;;;;;7.70;1.70;;;;;;;;;;5115683;28;20662;-86
2023/01/05 13:31:00;;;;;;;10.20;2.17;;;;;;;;;;5114506;28;20201;-86
2023/01/05 13:33:38;;;;;;;10.97;3.17;;;;;;;;;;5131206;27;20258;-87
2023/01/05 13:36:12;;;;;;;7.33;2.47;;;;;;;;;;5133743;27;20709;-87
2023/01/05 13:38:54;;;;;;;9.80;2.60;;;;;;;;;;5135713;27;20232;-85
2023/01/05 13:41:40;;;;;;;10.03;2.13;;;;;;;;;;5135206;27;20674;-86
2023/01/05 13:44:25;;;;;;;7.30;2.43;;;;;;;;;;5133116;27;20201;-86
2023/01/05 13:47:03;;;;;;;5.70;2.17;;;;;;;;;;5134552;27;20233;-86
2023/01/05 13:49:39;;;;;;;6.70;2.10;;;;;;;;;;5135993;27;20214;-86
2023/01/05 13:52:10;;;;;;;10.17;2.20;;;;;;;;;;5137818;27;20197;-86
2023/01/05 13:54:42;;;;;;;9.23;1.93;;;;;;;;;;5132112;27;22213;-85
2023/01/05 13:57:13;;;;;;;7.20;1.97;;;;;;;;;;5120355;28;20231;-86
2023/01/05 13:59:42;;;;;;;6.10;1.70;;;;;;;;;;5132042;27;20204;-84
2023/01/05 14:02:26;;;;;;;7.93;2.03;;;;;;;;;;5138442;27;20224;-86
2023/01/05 14:04:53;;;;;;;7.90;1.70;;;;;;;;;;5130661;27;20201;-86
2023/01/05 14:07:23;;;;;;;6.83;1.87;;;;;;;;;;5114935;28;20259;-86
2023/01/05 14:09:53;;;;;;;9.77;2.27;;;;;;;;;;5117321;27;20213;-86
2023/01/05 14:12:38;;;;;;;6.60;1.70;;;;;;;;;;5132307;27;20202;-86
2023/01/05 14:15:32;;;;;;;6.10;1.30;;;;;;;;;;5129316;27;20193;-86
2023/01/05 14:18:01;;;;;;;6.23;1.50;;;;;;;;;;5135508;27;20206;-85
2023/01/05 14:20:36;;;;;;;6.83;1.80;;;;;;;;;;5135126;27;20193;-86
2023/01/05 14:23:05;;;;;;;6.83;1.37;;;;;;;;;;5134379;27;20630;-85
2023/01/05 14:25:45;;;;;;;8.17;1.60;;;;;;;;;;5124571;27;20273;-86
2023/01/05 14:28:40;;;;;;;9.77;2.43;;;;;;;;;;5114504;27;20231;-85
2023/01/05 14:31:40;;;;;;;7.43;2.13;;;;;;;;;;5030979;28;20207;-86
2023/01/05 14:34:13;;;;;;;5.67;1.90;;;;;;;;;;4972989;28;20400;-85
2023/01/05 14:36:41;;;;;;;6.43;1.67;;;;;;;;;;4972183;28;20238;-86
2023/01/05 14:39:21;;;;;;;6.30;1.63;;;;;;;;;;4954639;28;20223;-87
2023/01/05 14:41:55;;;;;;;4.03;1.60;;;;;;;;;;4952593;28;20940;-85
2023/01/05 14:44:25;;;;;;;7.03;1.17;;;;;;;;;;4957398;28;20230;-86
2023/01/05 14:46:53;;;;;;;7.43;1.83;;;;;;;;;;4970901;28;20268;-86
2023/01/05 14:49:26;;;;;;;4.40;1.43;;;;;;;;;;4972531;28;20712;-86
2023/01/05 14:51:55;;;;;;;4.20;1.30;;;;;;;;;;4971879;28;20301;-86
2023/01/05 14:54:35;;;;;;;4.70;1.10;;;;;;;;;;4972167;28;20206;-86
2023/01/05 14:57:17;;;;;;;4.13;1.20;;;;;;;;;;4955557;28;20880;-85
2023/01/05 14:59:45;;;;;;;4.10;1.30;;;;;;;;;;4956522;28;20225;-85
2023/01/05 15:02:17;;;;;;;4.70;1.30;;;;;;;;;;4953291;28;20226;-85
2023/01/05 15:04:48;;;;;;;4.07;1.43;;;;;;;;;;4975764;28;20259;-84
2023/01/05 15:07:22;;;;;;;8.40;1.90;;;;;;;;;;5091642;27;20232;-86
2023/01/05 15:09:56;;;;;;;5.10;1.40;;;;;;;;;;5131714;27;20677;-86
2023/01/05 15:12:29;;;;;;;3.90;1.40;;;;;;;;;;5095644;28;20221;-86
2023/01/05 15:15:06;;;;;;;6.67;1.70;;;;;;;;;;5107630;27;20244;-85
2023/01/05 15:17:57;;;;;;;6.23;1.70;;;;;;;;;;5109505;27;20205;-85
2023/01/05 15:20:38;;;;;;;6.20;1.50;;;;;;;;;;5111453;28;20226;-85
2023/01/05 15:23:11;;;;;;;5.20;1.40;;;;;;;;;;5111657;28;20210;-85
2023/01/05 15:25:57;;;;;;;4.33;1.43;;;;;;;;;;5100235;28;20258;-86
2023/01/05 15:28:40;;;;;;;7.67;1.67;;;;;;;;;;5098163;28;20193;-86
2023/01/05 15:31:15;;;;;;;9.40;2.53;;;;;;;;;;5113083;28;20198;-86
2023/01/05 15:33:45;;;;;;;5.53;2.03;;;;;;;;;;5107982;28;20247;-85
2023/01/05 15:36:19;;;;;;;7.70;2.13;;;;;;;;;;5116122;27;20637;-84